Time;durP1;ratioP1;P1;durP2;ratioP2;P2;SDS_P1;SDS_P2;PMS_P1;PMS_P2;Temp;Humidity;BMP_temperature;BMP_pressure;BME280_temperature;BME280_humidity;BME280_pressure;Samples;Min_cycle;Max_cycle;Signal;HPM_P1;HPM_P2
2021/06/01 00:00:09;;;;;;;3.53;2.87;;;;;;;;;;5074011;28;20523;-65
2021/06/01 00:02:35;;;;;;;5.47;3.67;;;;;;;;;;5072525;28;20453;-65
2021/06/01 00:05:01;;;;;;;6.03;3.83;;;;;;;;;;5074133;28;20458;-65
2021/06/01 00:07:27;;;;;;;4.73;3.57;;;;;;;;;;5071347;28;20875;-65
2021/06/01 00:09:53;;;;;;;5.17;3.97;;;;;;;;;;5073580;28;20935;-65
2021/06/01 00:12:19;;;;;;;6.37;3.60;;;;;;;;;;5072470;28;20909;-65
2021/06/01 00:14:45;;;;;;;7.30;3.93;;;;;;;;;;5073474;28;20469;-65
2021/06/01 00:17:11;;;;;;;8.73;3.80;;;;;;;;;;5072520;28;20409;-65
2021/06/01 00:19:37;;;;;;;4.37;3.80;;;;;;;;;;5073550;28;20425;-65
2021/06/01 00:22:04;;;;;;;4.83;3.40;;;;;;;;;;5072349;28;20448;-65
2021/06/01 00:24:30;;;;;;;5.33;3.57;;;;;;;;;;5053831;28;20394;-65
2021/06/01 00:26:56;;;;;;;6.20;3.77;;;;;;;;;;5053543;28;20471;-65
2021/06/01 00:29:22;;;;;;;3.97;3.13;;;;;;;;;;5072664;28;20977;-65
2021/06/01 00:31:48;;;;;;;6.07;3.63;;;;;;;;;;5073547;28;20916;-65
2021/06/01 00:34:14;;;;;;;7.20;3.30;;;;;;;;;;5072872;28;20416;-65
2021/06/01 00:36:40;;;;;;;4.30;3.20;;;;;;;;;;5073328;28;20405;-65
2021/06/01 00:39:06;;;;;;;5.30;3.83;;;;;;;;;;5072035;28;20502;-65
2021/06/01 00:41:33;;;;;;;5.70;3.40;;;;;;;;;;5071438;28;20528;-65
2021/06/01 00:44:00;;;;;;;8.30;3.57;;;;;;;;;;5057274;28;20803;-65
2021/06/01 00:46:26;;;;;;;5.07;4.20;;;;;;;;;;5053580;28;20863;-65
2021/06/01 00:48:52;;;;;;;5.37;3.13;;;;;;;;;;5067644;28;20816;-65
2021/06/01 00:51:18;;;;;;;8.40;3.90;;;;;;;;;;5055417;28;20405;-64
2021/06/01 00:53:45;;;;;;;6.60;3.97;;;;;;;;;;5072481;28;20428;-65
2021/06/01 00:56:11;;;;;;;6.03;4.40;;;;;;;;;;5073375;28;20401;-65
2021/06/01 00:58:37;;;;;;;5.40;3.90;;;;;;;;;;5060730;28;20442;-65
2021/06/01 01:03:37;;;;;;;4.40;3.73;;;;;;;;;;5064618;28;20464;-65
2021/06/01 01:06:23;;;;;;;7.03;4.00;;;;;;;;;;5073348;28;20401;-65
2021/06/01 01:08:53;;;;;;;6.10;3.87;;;;;;;;;;5031564;28;20457;-65
2021/06/01 01:11:22;;;;;;;6.13;3.70;;;;;;;;;;5073642;28;20491;-65
2021/06/01 01:14:07;;;;;;;5.63;4.20;;;;;;;;;;5072651;28;20436;-64
2021/06/01 01:16:35;;;;;;;6.77;4.07;;;;;;;;;;5063085;28;20938;-64
2021/06/01 01:19:02;;;;;;;4.97;4.30;;;;;;;;;;5060417;28;20455;-64
2021/06/01 01:21:31;;;;;;;9.00;4.20;;;;;;;;;;5072988;28;20971;-64
2021/06/01 01:24:08;;;;;;;4.73;3.73;;;;;;;;;;5075415;28;20770;-64
2021/06/01 01:27:10;;;;;;;8.87;4.27;;;;;;;;;;5077622;28;20417;-64
2021/06/01 01:29:45;;;;;;;14.83;3.67;;;;;;;;;;4994351;28;20490;-65
2021/06/01 01:32:18;;;;;;;4.37;3.60;;;;;;;;;;5064675;28;20409;-65
2021/06/01 01:34:44;;;;;;;9.93;4.17;;;;;;;;;;5074197;28;20424;-65
2021/06/01 01:37:10;;;;;;;5.40;4.47;;;;;;;;;;5075433;28;20401;-65
2021/06/01 01:39:42;;;;;;;8.20;4.37;;;;;;;;;;5060639;28;20441;-65
2021/06/01 01:42:11;;;;;;;4.90;4.23;;;;;;;;;;5055323;28;20433;-65
2021/06/01 01:44:47;;;;;;;6.23;5.07;;;;;;;;;;5051511;28;20421;-65
2021/06/01 01:49:59;;;;;;;6.80;4.20;;;;;;;;;;5067259;28;20458;-64
2021/06/01 01:52:25;;;;;;;6.73;4.60;;;;;;;;;;5080690;28;20401;-65
2021/06/01 01:54:52;;;;;;;12.70;5.00;;;;;;;;;;5078481;28;20477;-65
2021/06/01 01:57:18;;;;;;;11.70;4.60;;;;;;;;;;5062065;28;20405;-65
2021/06/01 01:59:44;;;;;;;5.17;4.00;;;;;;;;;;5077982;28;20817;-65
2021/06/01 02:02:11;;;;;;;5.73;4.03;;;;;;;;;;5074332;28;20483;-64
2021/06/01 02:04:37;;;;;;;4.63;3.90;;;;;;;;;;5071075;28;20433;-64
2021/06/01 02:07:04;;;;;;;10.30;5.00;;;;;;;;;;5078909;28;20451;-64
2021/06/01 02:09:30;;;;;;;5.97;3.90;;;;;;;;;;5077693;28;20449;-65
2021/06/01 02:11:56;;;;;;;5.83;3.73;;;;;;;;;;5078422;28;20928;-64
2021/06/01 02:14:23;;;;;;;6.60;4.30;;;;;;;;;;5075952;28;20944;-65
2021/06/01 02:16:49;;;;;;;8.23;4.60;;;;;;;;;;5078566;28;20876;-64
2021/06/01 02:19:16;;;;;;;6.20;3.57;;;;;;;;;;5078447;28;21007;-64
2021/06/01 02:22:15;;;;;;;4.83;3.60;;;;;;;;;;5079258;28;20886;-64
2021/06/01 02:24:47;;;;;;;8.10;4.43;;;;;;;;;;5062755;28;20432;-65
2021/06/01 02:27:22;;;;;;;4.93;3.90;;;;;;;;;;5081157;28;20898;-65
2021/06/01 02:30:00;;;;;;;5.60;4.50;;;;;;;;;;5066806;28;20464;-65
2021/06/01 02:32:28;;;;;;;5.97;4.50;;;;;;;;;;5061444;28;20394;-65
2021/06/01 02:34:54;;;;;;;6.20;4.60;;;;;;;;;;5073972;28;20429;-65
2021/06/01 02:37:20;;;;;;;6.73;4.80;;;;;;;;;;5081319;28;20416;-65
2021/06/01 02:39:47;;;;;;;6.03;4.07;;;;;;;;;;5073441;28;20489;-65
2021/06/01 02:42:13;;;;;;;5.23;3.60;;;;;;;;;;5061075;28;20792;-65
2021/06/01 02:44:39;;;;;;;5.43;4.30;;;;;;;;;;5060755;28;20433;-65
2021/06/01 02:47:06;;;;;;;6.97;4.30;;;;;;;;;;5059885;28;20456;-65
2021/06/01 02:49:34;;;;;;;7.87;5.00;;;;;;;;;;5069595;28;20792;-65
2021/06/01 02:52:00;;;;;;;6.70;4.40;;;;;;;;;;5079873;28;20401;-65
2021/06/01 02:54:27;;;;;;;5.40;4.23;;;;;;;;;;5067711;28;20858;-65
2021/06/01 02:56:54;;;;;;;5.77;4.47;;;;;;;;;;5054095;28;20430;-64
2021/06/01 02:59:20;;;;;;;9.70;4.43;;;;;;;;;;5072655;28;20453;-65
2021/06/01 03:01:48;;;;;;;5.80;5.20;;;;;;;;;;5067965;28;20778;-64
2021/06/01 03:04:14;;;;;;;5.67;4.60;;;;;;;;;;5062138;28;20432;-64
2021/06/01 03:06:43;;;;;;;7.03;4.83;;;;;;;;;;5075664;28;20959;-64
2021/06/01 03:09:09;;;;;;;5.70;4.47;;;;;;;;;;5073875;28;20441;-64
2021/06/01 03:11:35;;;;;;;4.40;3.60;;;;;;;;;;5075436;28;20403;-64
2021/06/01 03:14:01;;;;;;;5.87;4.33;;;;;;;;;;5074083;28;20832;-64
2021/06/01 03:16:27;;;;;;;5.80;4.20;;;;;;;;;;5074991;28;20812;-64
2021/06/01 03:18:53;;;;;;;5.43;4.13;;;;;;;;;;5073974;28;20436;-64
2021/06/01 03:21:20;;;;;;;8.10;4.53;;;;;;;;;;5075475;28;20807;-64
2021/06/01 03:23:46;;;;;;;7.67;5.77;;;;;;;;;;5072550;28;20465;-64
2021/06/01 03:26:12;;;;;;;8.53;5.30;;;;;;;;;;5055736;28;20422;-64
2021/06/01 03:28:39;;;;;;;6.17;5.30;;;;;;;;;;5057446;28;20442;-65
2021/06/01 03:31:06;;;;;;;8.90;4.83;;;;;;;;;;5079596;28;20497;-65
2021/06/01 03:33:33;;;;;;;7.47;5.37;;;;;;;;;;5078778;28;20757;-65
2021/06/01 03:35:59;;;;;;;6.10;4.37;;;;;;;;;;5073778;28;20433;-65
2021/06/01 03:38:25;;;;;;;6.50;4.80;;;;;;;;;;5079069;28;20501;-65
2021/06/01 03:40:51;;;;;;;6.30;4.17;;;;;;;;;;5077886;28;20459;-65
2021/06/01 03:43:17;;;;;;;5.60;4.30;;;;;;;;;;5078499;28;20953;-65
2021/06/01 03:45:43;;;;;;;6.77;4.87;;;;;;;;;;5078879;28;20421;-65
2021/06/01 03:48:09;;;;;;;9.47;6.00;;;;;;;;;;5079917;28;20437;-65
2021/06/01 03:50:36;;;;;;;11.00;5.07;;;;;;;;;;5078209;28;20477;-65
2021/06/01 03:53:02;;;;;;;7.03;4.93;;;;;;;;;;5079853;28;20405;-64
2021/06/01 03:55:28;;;;;;;7.00;5.10;;;;;;;;;;5078273;28;20455;-65
2021/06/01 03:57:54;;;;;;;6.03;4.53;;;;;;;;;;5078399;28;20409;-65
2021/06/01 04:00:26;;;;;;;7.53;5.53;;;;;;;;;;5064615;28;20429;-65
2021/06/01 04:02:52;;;;;;;7.97;4.80;;;;;;;;;;5058944;28;20442;-65
2021/06/01 04:05:18;;;;;;;7.70;4.97;;;;;;;;;;5071188;28;20421;-65
2021/06/01 04:07:45;;;;;;;7.63;5.50;;;;;;;;;;5078585;28;20405;-65
2021/06/01 04:10:11;;;;;;;8.40;6.07;;;;;;;;;;5073911;28;20449;-65
2021/06/01 04:12:38;;;;;;;5.70;4.70;;;;;;;;;;5079492;28;20429;-65
2021/06/01 04:15:04;;;;;;;5.87;5.27;;;;;;;;;;5067609;28;20434;-65
2021/06/01 04:17:30;;;;;;;6.97;4.53;;;;;;;;;;5040451;28;20410;-64
2021/06/01 04:19:56;;;;;;;5.80;4.60;;;;;;;;;;5058479;28;20477;-65
2021/06/01 04:22:22;;;;;;;6.60;4.30;;;;;;;;;;5058150;28;20450;-65
2021/06/01 04:24:48;;;;;;;7.17;4.70;;;;;;;;;;5064380;28;20471;-65
2021/06/01 04:27:14;;;;;;;8.90;5.03;;;;;;;;;;5078694;28;20400;-65
2021/06/01 04:29:40;;;;;;;7.93;4.37;;;;;;;;;;5075535;28;20468;-65
2021/06/01 04:32:06;;;;;;;10.00;5.03;;;;;;;;;;5078297;28;20401;-65
2021/06/01 04:34:32;;;;;;;9.67;5.00;;;;;;;;;;5075900;28;20429;-65
2021/06/01 04:36:58;;;;;;;5.83;4.33;;;;;;;;;;5077630;28;20405;-65
2021/06/01 04:39:24;;;;;;;9.80;5.33;;;;;;;;;;5066288;28;20971;-64
2021/06/01 04:41:50;;;;;;;7.83;5.20;;;;;;;;;;5057473;28;20825;-65
2021/06/01 04:44:16;;;;;;;7.97;4.60;;;;;;;;;;5066581;28;20420;-65
2021/06/01 04:46:42;;;;;;;9.83;4.97;;;;;;;;;;5077287;28;20446;-65
2021/06/01 04:49:08;;;;;;;5.73;4.60;;;;;;;;;;5075575;28;20451;-65
2021/06/01 04:51:35;;;;;;;7.77;4.77;;;;;;;;;;5077311;28;20472;-65
2021/06/01 04:54:01;;;;;;;7.17;5.87;;;;;;;;;;5069360;28;20426;-65
2021/06/01 04:56:27;;;;;;;5.97;4.60;;;;;;;;;;5059571;28;20435;-65
2021/06/01 04:58:54;;;;;;;6.27;4.70;;;;;;;;;;5075841;28;20520;-65
2021/06/01 05:01:20;;;;;;;5.53;3.90;;;;;;;;;;5056330;28;20459;-64
2021/06/01 05:03:46;;;;;;;13.83;5.30;;;;;;;;;;5073187;28;20459;-64
2021/06/01 05:06:12;;;;;;;8.10;4.80;;;;;;;;;;5074721;28;20491;-64
2021/06/01 05:08:38;;;;;;;6.10;4.97;;;;;;;;;;5070477;28;21217;-64
2021/06/01 05:11:04;;;;;;;8.17;4.80;;;;;;;;;;5054669;28;20394;-64
2021/06/01 05:13:31;;;;;;;6.40;4.67;;;;;;;;;;5055145;28;20409;-65
2021/06/01 05:15:57;;;;;;;10.50;5.23;;;;;;;;;;5057666;28;20402;-65
2021/06/01 05:18:23;;;;;;;6.00;4.53;;;;;;;;;;5057362;28;20438;-64
2021/06/01 05:20:49;;;;;;;13.83;5.00;;;;;;;;;;5073576;28;20861;-65
2021/06/01 05:23:16;;;;;;;8.10;5.23;;;;;;;;;;5078875;28;20457;-63
2021/06/01 05:25:43;;;;;;;7.33;4.90;;;;;;;;;;5057729;28;20429;-63
2021/06/01 05:28:10;;;;;;;7.33;4.70;;;;;;;;;;5078397;28;20424;-64
2021/06/01 05:33:29;;;;;;;5.53;3.90;;;;;;;;;;5049136;28;20416;-64
2021/06/01 05:35:56;;;;;;;8.73;4.40;;;;;;;;;;5076500;28;20459;-64
2021/06/01 05:38:26;;;;;;;4.43;3.70;;;;;;;;;;5077960;28;20500;-64
2021/06/01 05:40:53;;;;;;;5.97;3.80;;;;;;;;;;5061393;28;20418;-65
2021/06/01 05:43:19;;;;;;;6.83;4.07;;;;;;;;;;5059851;28;20456;-64
2021/06/01 05:45:45;;;;;;;5.40;4.00;;;;;;;;;;5072005;28;20832;-64
2021/06/01 05:48:12;;;;;;;5.10;3.87;;;;;;;;;;5078360;28;20753;-64
2021/06/01 05:50:38;;;;;;;5.70;4.10;;;;;;;;;;5064498;28;20436;-64
2021/06/01 05:53:05;;;;;;;5.33;3.90;;;;;;;;;;5059362;28;20410;-63
2021/06/01 05:55:31;;;;;;;6.80;3.97;;;;;;;;;;5058014;28;20432;-64
2021/06/01 05:57:57;;;;;;;14.90;6.50;;;;;;;;;;5058119;28;20409;-64
2021/06/01 06:00:23;;;;;;;9.80;5.10;;;;;;;;;;5058347;28;20493;-64
2021/06/01 06:02:50;;;;;;;7.83;4.80;;;;;;;;;;5058810;28;20851;-64
2021/06/01 06:05:16;;;;;;;6.20;4.60;;;;;;;;;;5068223;28;20417;-64
2021/06/01 06:07:42;;;;;;;9.57;5.17;;;;;;;;;;5079116;28;20741;-65
2021/06/01 06:10:09;;;;;;;8.63;4.17;;;;;;;;;;5077897;28;20447;-64
2021/06/01 06:12:35;;;;;;;7.50;3.73;;;;;;;;;;5079159;28;20405;-65
2021/06/01 06:15:02;;;;;;;6.57;4.30;;;;;;;;;;5076726;28;20428;-65
2021/06/01 06:17:40;;;;;;;6.50;3.70;;;;;;;;;;5079032;28;20413;-64
2021/06/01 06:20:06;;;;;;;5.90;3.33;;;;;;;;;;5075602;28;20452;-65
2021/06/01 06:22:32;;;;;;;5.47;3.67;;;;;;;;;;5078191;28;20483;-65
2021/06/01 06:24:59;;;;;;;6.10;3.30;;;;;;;;;;5073673;28;20804;-65
2021/06/01 06:27:25;;;;;;;5.70;3.83;;;;;;;;;;5058982;28;20393;-64
2021/06/01 06:29:51;;;;;;;5.77;2.97;;;;;;;;;;5064559;28;20800;-64
2021/06/01 06:32:17;;;;;;;4.90;3.07;;;;;;;;;;5079348;28;20412;-66
2021/06/01 06:34:44;;;;;;;5.00;3.10;;;;;;;;;;5078030;28;20421;-65
2021/06/01 06:37:10;;;;;;;4.17;2.43;;;;;;;;;;5079567;28;20840;-65
2021/06/01 06:39:36;;;;;;;4.33;3.00;;;;;;;;;;5078784;28;20444;-65
2021/06/01 06:42:03;;;;;;;5.10;3.20;;;;;;;;;;5080149;28;20845;-65
2021/06/01 06:44:29;;;;;;;4.90;2.90;;;;;;;;;;5078632;28;20401;-65
2021/06/01 06:49:38;;;;;;;7.03;3.07;;;;;;;;;;5076884;28;20444;-65
2021/06/01 06:52:04;;;;;;;5.20;3.20;;;;;;;;;;5059484;28;20402;-65
2021/06/01 06:54:30;;;;;;;4.57;3.40;;;;;;;;;;5077981;28;20878;-65
2021/06/01 06:56:56;;;;;;;3.03;2.60;;;;;;;;;;5079033;28;20401;-64
2021/06/01 06:59:23;;;;;;;3.53;3.23;;;;;;;;;;5077785;28;20429;-65
2021/06/01 07:01:49;;;;;;;5.37;3.07;;;;;;;;;;5078587;28;20769;-65
2021/06/01 07:04:15;;;;;;;5.87;3.10;;;;;;;;;;5078550;28;20891;-65
2021/06/01 07:06:41;;;;;;;3.57;2.80;;;;;;;;;;5078428;28;20428;-65
2021/06/01 07:09:07;;;;;;;4.40;3.00;;;;;;;;;;5078176;28;20417;-65
2021/06/01 07:11:34;;;;;;;5.70;3.17;;;;;;;;;;5078037;28;20715;-65
2021/06/01 07:14:06;;;;;;;3.87;2.80;;;;;;;;;;5078476;28;20886;-65
2021/06/01 07:16:32;;;;;;;3.50;2.70;;;;;;;;;;5076300;28;20429;-65
2021/06/01 07:18:58;;;;;;;5.60;3.73;;;;;;;;;;5078392;28;20504;-65
2021/06/01 07:21:24;;;;;;;7.23;4.70;;;;;;;;;;5075268;28;20427;-65
2021/06/01 07:23:50;;;;;;;6.80;4.57;;;;;;;;;;5077038;28;20455;-65
2021/06/01 07:26:17;;;;;;;5.87;4.67;;;;;;;;;;5075942;28;20504;-65
2021/06/01 07:28:43;;;;;;;2.83;2.50;;;;;;;;;;5076934;28;20540;-66
2021/06/01 07:31:14;;;;;;;4.47;2.83;;;;;;;;;;5068440;28;20422;-66
2021/06/01 07:33:40;;;;;;;4.33;2.73;;;;;;;;;;5067246;28;20413;-63
2021/06/01 07:36:06;;;;;;;18.57;3.53;;;;;;;;;;5073260;28;20737;-65
2021/06/01 07:38:32;;;;;;;4.83;2.93;;;;;;;;;;5054345;28;20607;-62
2021/06/01 07:40:58;;;;;;;4.00;2.70;;;;;;;;;;5066453;28;20985;-62
2021/06/01 07:43:25;;;;;;;7.57;2.73;;;;;;;;;;5072225;28;20455;-64
2021/06/01 07:45:51;;;;;;;4.10;2.90;;;;;;;;;;5070307;28;20416;-66
2021/06/01 07:48:17;;;;;;;4.13;2.73;;;;;;;;;;5070885;28;20445;-66
2021/06/01 07:50:43;;;;;;;3.90;2.50;;;;;;;;;;5065197;28;20439;-67
2021/06/01 07:53:09;;;;;;;5.23;3.40;;;;;;;;;;5073385;28;20861;-67
2021/06/01 07:55:35;;;;;;;4.47;3.20;;;;;;;;;;5070434;28;20502;-66
2021/06/01 07:58:01;;;;;;;4.80;3.10;;;;;;;;;;5073368;28;20833;-66
2021/06/01 08:00:27;;;;;;;4.53;2.97;;;;;;;;;;5072010;28;20782;-66
2021/06/01 08:02:54;;;;;;;4.40;3.10;;;;;;;;;;5072701;28;20802;-64
2021/06/01 08:05:22;;;;;;;5.90;3.37;;;;;;;;;;5070290;28;20906;-65
2021/06/01 08:07:49;;;;;;;7.07;3.43;;;;;;;;;;5072939;28;20406;-62
2021/06/01 08:10:21;;;;;;;8.20;3.83;;;;;;;;;;5068451;28;20501;-64
2021/06/01 08:12:48;;;;;;;6.33;3.10;;;;;;;;;;5053531;28;20782;-66
2021/06/01 08:15:15;;;;;;;4.00;2.70;;;;;;;;;;5058810;28;20420;-65
2021/06/01 08:17:41;;;;;;;4.40;2.60;;;;;;;;;;5070362;28;20495;-67
2021/06/01 08:20:29;;;;;;;3.92;2.60;;;;;;;;;;5071467;28;20783;-67
2021/06/01 08:22:56;;;;;;;5.40;2.57;;;;;;;;;;5054759;28;20619;-66
2021/06/01 08:25:22;;;;;;;4.60;2.60;;;;;;;;;;5071646;28;20417;-68
2021/06/01 08:27:48;;;;;;;3.90;2.87;;;;;;;;;;5065871;28;20464;-68
2021/06/01 08:30:14;;;;;;;3.50;2.53;;;;;;;;;;5062791;28;20426;-67
2021/06/01 08:32:40;;;;;;;5.20;2.80;;;;;;;;;;5069761;28;20414;-67
2021/06/01 08:35:07;;;;;;;4.07;2.37;;;;;;;;;;5071933;28;20752;-68
2021/06/01 08:37:33;;;;;;;3.90;2.40;;;;;;;;;;5071781;28;20464;-67
2021/06/01 08:39:59;;;;;;;3.00;2.00;;;;;;;;;;5071394;28;20433;-67
2021/06/01 08:42:25;;;;;;;5.20;2.53;;;;;;;;;;5067300;28;20448;-69
2021/06/01 08:44:51;;;;;;;3.03;2.13;;;;;;;;;;5063425;28;20880;-68
2021/06/01 08:47:18;;;;;;;4.67;2.60;;;;;;;;;;5065673;28;20590;-67
2021/06/01 08:49:46;;;;;;;3.80;2.67;;;;;;;;;;5054719;28;20440;-68
2021/06/01 08:52:12;;;;;;;9.10;2.47;;;;;;;;;;5071577;28;20474;-67
2021/06/01 08:54:38;;;;;;;4.20;2.40;;;;;;;;;;5074053;28;20443;-68
2021/06/01 08:57:04;;;;;;;3.67;2.37;;;;;;;;;;5071604;28;20723;-68
2021/06/01 08:59:30;;;;;;;3.10;2.33;;;;;;;;;;5076572;28;20519;-69
2021/06/01 09:01:58;;;;;;;3.47;2.40;;;;;;;;;;5075132;28;20429;-68
2021/06/01 09:04:24;;;;;;;3.57;2.70;;;;;;;;;;5076601;28;20500;-68
2021/06/01 09:06:59;;;;;;;4.80;2.50;;;;;;;;;;5075472;28;20834;-67
2021/06/01 09:22:52;;;;;;;5.13;2.00;;;;;;;;;;5071594;28;20490;-67
2021/06/01 09:25:23;;;;;;;7.47;4.30;;;;;;;;;;5056320;28;20890;-67
2021/06/01 09:27:49;;;;;;;4.13;3.23;;;;;;;;;;5073766;28;20424;-66
2021/06/01 09:30:34;;;;;;;3.20;2.33;;;;;;;;;;5075541;28;20429;-65
2021/06/01 09:33:00;;;;;;;5.10;2.83;;;;;;;;;;5073370;28;20424;-69
2021/06/01 09:35:42;;;;;;;5.13;3.20;;;;;;;;;;5075299;28;20446;-67
2021/06/01 09:38:09;;;;;;;3.57;2.77;;;;;;;;;;5075233;28;20943;-68
2021/06/01 09:40:35;;;;;;;3.70;2.83;;;;;;;;;;5063639;28;20421;-69
2021/06/01 09:43:01;;;;;;;5.00;2.73;;;;;;;;;;5056921;28;20449;-65
2021/06/01 09:45:27;;;;;;;3.53;2.60;;;;;;;;;;5074573;28;20523;-65
2021/06/01 09:47:53;;;;;;;3.60;2.50;;;;;;;;;;5071998;28;20413;-65
2021/06/01 09:53:06;;;;;;;7.30;2.50;;;;;;;;;;5075262;28;20432;-64
2021/06/01 09:55:35;;;;;;;3.47;2.67;;;;;;;;;;5074801;28;20431;-65
2021/06/01 09:58:02;;;;;;;3.23;2.60;;;;;;;;;;5056558;28;20421;-65
2021/06/01 10:00:31;;;;;;;7.03;2.47;;;;;;;;;;5055936;28;20398;-65
2021/06/01 10:03:02;;;;;;;4.37;2.73;;;;;;;;;;5072586;28;20547;-65
2021/06/01 10:05:33;;;;;;;4.30;2.80;;;;;;;;;;5075381;28;20828;-65
2021/06/01 10:08:09;;;;;;;4.23;2.70;;;;;;;;;;5074134;28;20828;-65
2021/06/01 10:10:35;;;;;;;3.17;2.50;;;;;;;;;;5075450;28;20436;-66
2021/06/01 10:13:10;;;;;;;3.80;2.33;;;;;;;;;;5074461;28;20504;-66
2021/06/01 10:15:37;;;;;;;3.77;2.57;;;;;;;;;;5075307;28;20389;-65
2021/06/01 10:18:05;;;;;;;3.40;2.40;;;;;;;;;;5074013;28;20942;-65
2021/06/01 10:20:32;;;;;;;5.03;2.60;;;;;;;;;;5068575;28;20413;-65
2021/06/01 10:22:58;;;;;;;3.10;2.60;;;;;;;;;;5055153;28;20458;-65
2021/06/01 10:25:24;;;;;;;5.90;2.80;;;;;;;;;;5054796;28;20410;-65
2021/06/01 10:27:52;;;;;;;4.23;2.70;;;;;;;;;;5069885;28;20421;-66
2021/06/01 10:30:18;;;;;;;3.60;2.40;;;;;;;;;;5058637;28;20418;-65
2021/06/01 10:32:47;;;;;;;4.27;2.53;;;;;;;;;;5068256;28;20778;-65
2021/06/01 10:35:16;;;;;;;3.90;2.80;;;;;;;;;;5074839;28;20451;-65
2021/06/01 10:52:05;;;;;;;6.00;2.63;;;;;;;;;;5058760;28;20910;-68
2021/06/01 10:54:45;;;;;;;5.10;2.43;;;;;;;;;;5067276;28;20444;-69
2021/06/01 10:57:12;;;;;;;5.40;3.13;;;;;;;;;;5073420;28;20503;-68
2021/06/01 10:59:58;;;;;;;2.90;2.50;;;;;;;;;;5065006;28;20513;-70
2021/06/01 11:02:24;;;;;;;2.90;2.40;;;;;;;;;;5050410;28;20811;-67
2021/06/01 11:05:10;;;;;;;3.23;2.80;;;;;;;;;;5070415;28;20494;-69
2021/06/01 11:07:55;;;;;;;4.20;2.65;;;;;;;;;;5072149;28;20496;-68
2021/06/01 11:10:40;;;;;;;3.97;2.70;;;;;;;;;;5073928;28;20231;-68
2021/06/01 11:13:07;;;;;;;4.63;2.30;;;;;;;;;;5073217;28;20495;-68
2021/06/01 11:15:34;;;;;;;5.83;2.63;;;;;;;;;;5073470;28;20417;-67
2021/06/01 11:18:21;;;;;;;3.80;2.70;;;;;;;;;;5071425;28;20508;-65
2021/06/01 11:21:09;;;;;;;4.67;2.83;;;;;;;;;;5073755;28;20220;-69
2021/06/01 11:23:59;;;;;;;4.40;3.00;;;;;;;;;;5072173;28;20506;-66
2021/06/01 11:34:39;;;;;;;4.60;2.50;;;;;;;;;;5073091;28;20921;-70
2021/06/01 11:37:16;;;;;;;7.27;2.67;;;;;;;;;;5070694;28;20509;-67
2021/06/01 11:43:13;;;;;;;4.80;2.90;;;;;;;;;;5062610;28;20816;-71
2021/06/01 11:45:40;;;;;;;5.40;2.60;;;;;;;;;;5061692;28;20174;-69
2021/06/01 11:48:13;;;;;;;5.10;2.90;;;;;;;;;;5064522;28;20512;-67
2021/06/01 11:50:59;;;;;;;4.20;2.40;;;;;;;;;;5063253;28;20159;-68
2021/06/01 11:53:25;;;;;;;3.80;2.67;;;;;;;;;;5058752;28;20427;-66
2021/06/01 11:56:00;;;;;;;3.50;2.70;;;;;;;;;;5052180;28;20786;-66
2021/06/01 12:03:58;;;;;;;3.00;2.17;;;;;;;;;;5052570;28;20523;-68
2021/06/01 12:12:04;;;;;;;5.43;2.10;;;;;;;;;;5046144;28;20792;-68
2021/06/01 12:17:17;;;;;;;2.70;2.20;;;;;;;;;;5049471;28;20536;-67
2021/06/01 12:19:43;;;;;;;3.10;2.20;;;;;;;;;;5046421;28;20823;-67
2021/06/01 12:22:11;;;;;;;4.20;2.10;;;;;;;;;;5045863;28;20969;-68
2021/06/01 12:24:39;;;;;;;4.10;2.20;;;;;;;;;;5053010;28;20413;-70
2021/06/01 12:27:26;;;;;;;2.90;2.07;;;;;;;;;;5049261;28;20466;-67
2021/06/01 12:32:36;;;;;;;4.23;2.10;;;;;;;;;;5048817;28;20464;-69
2021/06/01 12:35:45;;;;;;;3.00;2.30;;;;;;;;;;5049136;28;20505;-67
2021/06/01 13:14:17;;;;;;;2.50;1.67;;;;;;;;;;5044284;28;20438;-65
2021/06/01 13:19:29;;;;;;;2.67;1.70;;;;;;;;;;5044914;28;21032;-65
2021/06/01 13:22:23;;;;;;;3.00;1.77;;;;;;;;;;5034839;28;20403;-65
2021/06/01 13:30:30;;;;;;;3.90;1.70;;;;;;;;;;5037425;28;20479;-66
2021/06/01 13:38:37;;;;;;;2.60;1.57;;;;;;;;;;5030523;28;20596;-69
2021/06/01 13:46:49;;;;;;;2.60;1.50;;;;;;;;;;5015104;28;20399;-67
2021/06/01 13:49:22;;;;;;;2.60;1.80;;;;;;;;;;5042474;28;20446;-67
2021/06/01 13:57:08;;;;;;;2.57;1.70;;;;;;;;;;5051316;28;20429;-67
2021/06/01 13:59:46;;;;;;;2.80;1.70;;;;;;;;;;5034378;28;20471;-66
2021/06/01 14:37:19;;;;;;;11.57;2.00;;;;;;;;;;5033939;28;20387;-67
2021/06/01 15:03:44;;;;;;;3.10;1.63;;;;;;;;;;5033931;28;20475;-66
2021/06/01 16:21:26;;;;;;;7.53;2.40;;;;;;;;;;4991145;28;20783;-67
2021/06/01 16:32:14;;;;;;;2.93;1.70;;;;;;;;;;4996480;28;20963;-68
2021/06/01 17:04:50;;;;;;;2.50;1.50;;;;;;;;;;4995522;28;20920;-67
2021/06/01 17:07:33;;;;;;;3.83;1.50;;;;;;;;;;4996019;28;20397;-67
2021/06/01 17:12:49;;;;;;;2.30;1.40;;;;;;;;;;4995929;28;20483;-67
2021/06/01 17:15:17;;;;;;;2.33;1.50;;;;;;;;;;4994794;28;20420;-67
2021/06/01 17:17:48;;;;;;;4.27;1.60;;;;;;;;;;4995976;28;20414;-67
2021/06/01 17:36:29;;;;;;;3.90;1.67;;;;;;;;;;4994851;28;20467;-67
2021/06/01 17:38:57;;;;;;;4.03;1.80;;;;;;;;;;4994199;28;20968;-67
2021/06/01 17:41:24;;;;;;;3.87;2.20;;;;;;;;;;4994284;28;20435;-67
2021/06/01 17:43:53;;;;;;;3.37;1.50;;;;;;;;;;4994046;28;20443;-67
2021/06/01 17:46:22;;;;;;;3.10;1.77;;;;;;;;;;4993111;28;20943;-67
2021/06/01 17:48:55;;;;;;;2.50;1.53;;;;;;;;;;4995226;28;20543;-67
2021/06/01 17:51:23;;;;;;;3.70;1.90;;;;;;;;;;4992932;28;20534;-67
2021/06/01 17:53:49;;;;;;;2.70;1.83;;;;;;;;;;4995125;28;20405;-67
2021/06/01 17:56:17;;;;;;;6.10;1.93;;;;;;;;;;4994100;28;20531;-67
2021/06/01 17:58:43;;;;;;;7.67;2.00;;;;;;;;;;4995102;28;20444;-67
2021/06/01 18:01:10;;;;;;;2.73;1.63;;;;;;;;;;4993194;28;20428;-67
2021/06/01 18:03:43;;;;;;;2.60;1.60;;;;;;;;;;4995115;28;20463;-67
2021/06/01 18:06:11;;;;;;;3.50;1.90;;;;;;;;;;4994069;28;20985;-67
2021/06/01 18:09:09;;;;;;;4.03;2.10;;;;;;;;;;4994846;28;20413;-67
2021/06/01 18:35:15;;;;;;;3.13;1.97;;;;;;;;;;4994611;28;20448;-68
2021/06/01 19:23:09;;;;;;;3.47;2.00;;;;;;;;;;4990583;28;20456;-67
2021/06/01 19:24:54;;;;;;;3.70;2.30;;;;;;;;;;4993300;28;20463;-67
2021/06/01 19:51:59;;;;;;;3.47;2.13;;;;;;;;;;4979482;28;20467;-68
2021/06/01 19:54:26;;;;;;;4.03;2.50;;;;;;;;;;4993676;28;20401;-68
2021/06/01 19:56:53;;;;;;;3.33;2.50;;;;;;;;;;4992271;28;20428;-67
2021/06/01 19:59:20;;;;;;;4.53;2.13;;;;;;;;;;4993779;28;20448;-68
2021/06/01 20:01:46;;;;;;;8.50;2.40;;;;;;;;;;4996297;28;20808;-68
2021/06/01 20:04:12;;;;;;;5.33;2.50;;;;;;;;;;4997725;28;20401;-68
2021/06/01 20:06:39;;;;;;;3.53;2.60;;;;;;;;;;4996278;28;20417;-68
2021/06/01 20:09:06;;;;;;;3.40;2.60;;;;;;;;;;4997319;28;20437;-68
2021/06/01 20:11:34;;;;;;;2.90;2.17;;;;;;;;;;4996256;28;20420;-67
2021/06/01 20:14:00;;;;;;;4.93;2.20;;;;;;;;;;4997322;28;20405;-68
2021/06/01 20:16:26;;;;;;;4.73;2.90;;;;;;;;;;4996243;28;20404;-67
2021/06/01 20:18:53;;;;;;;4.13;2.67;;;;;;;;;;4997261;28;20449;-68
2021/06/01 20:21:19;;;;;;;3.30;2.40;;;;;;;;;;4995202;28;20819;-67
2021/06/01 20:23:46;;;;;;;3.23;2.40;;;;;;;;;;4996857;28;20772;-68
2021/06/01 20:26:13;;;;;;;4.13;2.57;;;;;;;;;;4991861;28;20420;-68
2021/06/01 20:28:43;;;;;;;6.13;2.93;;;;;;;;;;4978521;28;20432;-68
2021/06/01 20:31:17;;;;;;;5.23;2.50;;;;;;;;;;4977381;28;20496;-68
2021/06/01 20:33:44;;;;;;;4.07;2.43;;;;;;;;;;4995720;28;20490;-68
2021/06/01 20:36:10;;;;;;;5.63;3.23;;;;;;;;;;4996778;28;20823;-68
2021/06/01 20:38:37;;;;;;;5.50;2.90;;;;;;;;;;4995901;28;20456;-68
2021/06/01 20:41:03;;;;;;;4.23;2.60;;;;;;;;;;4996803;28;20401;-68
2021/06/01 20:43:30;;;;;;;6.93;2.80;;;;;;;;;;4995741;28;20440;-68
2021/06/01 20:45:56;;;;;;;10.63;3.03;;;;;;;;;;4996663;28;20401;-68
2021/06/01 20:48:23;;;;;;;4.07;2.70;;;;;;;;;;4994090;28;20428;-68
2021/06/01 20:50:50;;;;;;;4.13;2.80;;;;;;;;;;4996610;28;20463;-68
2021/06/01 20:53:16;;;;;;;6.93;3.67;;;;;;;;;;4995219;28;20466;-67
2021/06/01 20:55:44;;;;;;;4.43;2.67;;;;;;;;;;4996458;28;20463;-67
2021/06/01 20:58:18;;;;;;;3.83;2.43;;;;;;;;;;4994285;28;20460;-68
2021/06/01 21:00:45;;;;;;;4.13;2.37;;;;;;;;;;4996844;28;20380;-68
2021/06/01 21:03:11;;;;;;;3.80;2.63;;;;;;;;;;4995460;28;20957;-68
2021/06/01 21:05:38;;;;;;;4.10;2.50;;;;;;;;;;4996355;28;20405;-67
2021/06/01 21:08:06;;;;;;;3.70;2.10;;;;;;;;;;4995632;28;20451;-67
2021/06/01 21:10:32;;;;;;;5.70;2.53;;;;;;;;;;4995992;28;20944;-68
2021/06/01 21:12:58;;;;;;;4.63;2.73;;;;;;;;;;4995709;28;20821;-68
2021/06/01 21:15:25;;;;;;;4.00;2.40;;;;;;;;;;4996220;28;20484;-67
2021/06/01 21:17:51;;;;;;;7.37;2.70;;;;;;;;;;4994957;28;20527;-68
2021/06/01 21:20:19;;;;;;;3.27;2.43;;;;;;;;;;4996248;28;20393;-67
2021/06/01 21:22:46;;;;;;;5.93;2.30;;;;;;;;;;4986836;28;20984;-67
2021/06/01 21:25:16;;;;;;;5.13;3.07;;;;;;;;;;4976575;28;20421;-68
2021/06/01 21:27:42;;;;;;;5.20;2.80;;;;;;;;;;4984061;28;20452;-68
2021/06/01 21:30:09;;;;;;;3.47;2.33;;;;;;;;;;4994623;28;20416;-68
2021/06/01 21:33:01;;;;;;;4.33;2.17;;;;;;;;;;4993878;28;21004;-68
2021/06/01 21:35:28;;;;;;;3.80;2.30;;;;;;;;;;4992053;28;20563;-68
2021/06/01 21:37:57;;;;;;;3.97;2.30;;;;;;;;;;4985793;28;20484;-68
2021/06/01 21:40:24;;;;;;;6.43;2.60;;;;;;;;;;4976364;28;20405;-67
2021/06/01 21:42:50;;;;;;;6.13;2.60;;;;;;;;;;4999483;28;20453;-68
2021/06/01 21:45:21;;;;;;;3.60;2.60;;;;;;;;;;4995616;28;20400;-67